Terminal Aerodrome Forecast
Issued by NWS

Home | Current Version | Previous Version | Text Only | Print | Product List | Glossary On
Versions: 1 2 3 4 5 6 7 8 9 10 11 12 13 14 15 16 17 18 19 20 21 22 23 24 25
751
FTUS43 KAPX 101133
TAFPLN
TAF
KPLN 101133Z 1012/1112 33012KT P6SM BKN035 OVC080
      TEMPO 1012/1013 3SM -SHSN
     FM101400 33012G18KT P6SM BKN025
     FM110100 33010G15KT P6SM BKN035
     FM110500 34007KT P6SM SCT035=

USA.gov is the U.S. government's official web portal to all federal, state and local government web resources and services.